sensor_id;sensor_type;location;lat;lon;timestamp;pressure;altitude;pressure_sealevel;temperature;humidity
56630;BME280;42502;40.732;-74.254;2023-04-26T00:01:02;101189.59;;;23.51;30.29
56630;BME280;42502;40.732;-74.254;2023-04-26T00:03:05;101183.69;;;23.56;30.13
56630;BME280;42502;40.732;-74.254;2023-04-26T00:05:07;101192.16;;;23.56;30.20
56630;BME280;42502;40.732;-74.254;2023-04-26T00:07:08;101194.13;;;23.56;30.14
56630;BME280;42502;40.732;-74.254;2023-04-26T00:09:09;101202.59;;;23.56;30.15
56630;BME280;42502;40.732;-74.254;2023-04-26T00:11:10;101199.78;;;23.56;30.25
56630;BME280;42502;40.732;-74.254;2023-04-26T00:13:11;101204.59;;;23.55;30.15
56630;BME280;42502;40.732;-74.254;2023-04-26T00:15:11;101205.78;;;23.54;30.21
56630;BME280;42502;40.732;-74.254;2023-04-26T00:17:12;101214.25;;;23.54;29.94
56630;BME280;42502;40.732;-74.254;2023-04-26T00:19:13;101206.94;;;23.53;30.16
56630;BME280;42502;40.732;-74.254;2023-04-26T00:21:15;101202.41;;;23.49;29.87
56630;BME280;42502;40.732;-74.254;2023-04-26T00:23:16;101201.59;;;23.48;29.83
56630;BME280;42502;40.732;-74.254;2023-04-26T00:25:17;101201.69;;;23.52;29.95
56630;BME280;42502;40.732;-74.254;2023-04-26T00:27:18;101209.31;;;23.51;30.08
56630;BME280;42502;40.732;-74.254;2023-04-26T00:29:20;101217.78;;;23.51;30.01
56630;BME280;42502;40.732;-74.254;2023-04-26T00:31:21;101214.03;;;23.47;29.90
56630;BME280;42502;40.732;-74.254;2023-04-26T00:33:25;101212.78;;;23.45;29.90
56630;BME280;42502;40.732;-74.254;2023-04-26T00:35:26;101219.31;;;23.49;30.07
56630;BME280;42502;40.732;-74.254;2023-04-26T00:37:27;101222.97;;;23.49;29.95
56630;BME280;42502;40.732;-74.254;2023-04-26T00:39:28;101225.31;;;23.47;30.01
56630;BME280;42502;40.732;-74.254;2023-04-26T00:41:28;101228.13;;;23.47;29.96
56630;BME280;42502;40.732;-74.254;2023-04-26T00:43:29;101234.97;;;23.46;29.91
56630;BME280;42502;40.732;-74.254;2023-04-26T00:45:30;101222.78;;;23.42;29.71
56630;BME280;42502;40.732;-74.254;2023-04-26T00:47:31;101236.97;;;23.46;29.75
56630;BME280;42502;40.732;-74.254;2023-04-26T00:49:32;101242.59;;;23.46;29.68
56630;BME280;42502;40.732;-74.254;2023-04-26T00:51:34;101238.53;;;23.43;29.79
56630;BME280;42502;40.732;-74.254;2023-04-26T00:53:35;101240.97;;;23.45;29.76
56630;BME280;42502;40.732;-74.254;2023-04-26T00:55:36;101241.34;;;23.43;29.77
56630;BME280;42502;40.732;-74.254;2023-04-26T00:57:38;101245.34;;;23.42;29.87
56630;BME280;42502;40.732;-74.254;2023-04-26T00:59:39;101247.34;;;23.41;29.90
56630;BME280;42502;40.732;-74.254;2023-04-26T01:01:40;101241.69;;;23.41;29.86
56630;BME280;42502;40.732;-74.254;2023-04-26T01:03:42;101233.03;;;23.34;29.89
56630;BME280;42502;40.732;-74.254;2023-04-26T01:05:46;101250.53;;;23.40;29.75
56630;BME280;42502;40.732;-74.254;2023-04-26T01:07:47;101242.31;;;23.35;29.73
56630;BME280;42502;40.732;-74.254;2023-04-26T01:09:48;101254.50;;;23.39;29.93
56630;BME280;42502;40.732;-74.254;2023-04-26T01:11:50;101255.69;;;23.38;29.86
56630;BME280;42502;40.732;-74.254;2023-04-26T01:13:52;101254.06;;;23.37;29.75
56630;BME280;42502;40.732;-74.254;2023-04-26T01:15:54;101252.41;;;23.36;29.88
56630;BME280;42502;40.732;-74.254;2023-04-26T01:17:56;101250.31;;;23.33;29.69
56630;BME280;42502;40.732;-74.254;2023-04-26T01:19:57;101249.50;;;23.32;29.88
56630;BME280;42502;40.732;-74.254;2023-04-26T01:21:58;101258.06;;;23.36;29.83
56630;BME280;42502;40.732;-74.254;2023-04-26T01:23:58;101256.66;;;23.30;29.73
56630;BME280;42502;40.732;-74.254;2023-04-26T01:25:59;101261.22;;;23.34;29.85
56630;BME280;42502;40.732;-74.254;2023-04-26T01:28:00;101254.78;;;23.34;29.70
56630;BME280;42502;40.732;-74.254;2023-04-26T01:30:01;101261.59;;;23.33;29.86
56630;BME280;42502;40.732;-74.254;2023-04-26T01:32:02;101258.78;;;23.33;29.79
56630;BME280;42502;40.732;-74.254;2023-04-26T01:34:03;101252.22;;;23.29;29.86
56630;BME280;42502;40.732;-74.254;2023-04-26T01:36:08;101258.31;;;23.31;29.75
56630;BME280;42502;40.732;-74.254;2023-04-26T01:38:12;101259.94;;;23.32;29.89
56630;BME280;42502;40.732;-74.254;2023-04-26T01:40:14;101263.13;;;23.30;29.87
56630;BME280;42502;40.732;-74.254;2023-04-26T01:42:14;101260.66;;;23.29;29.68
56630;BME280;42502;40.732;-74.254;2023-04-26T01:44:15;101269.13;;;23.29;29.63
56630;BME280;42502;40.732;-74.254;2023-04-26T01:46:16;101255.75;;;23.26;29.94
56630;BME280;42502;40.732;-74.254;2023-04-26T01:48:17;101260.56;;;23.25;29.89
56630;BME280;42502;40.732;-74.254;2023-04-26T01:50:18;101264.69;;;23.28;29.89
56630;BME280;42502;40.732;-74.254;2023-04-26T01:52:20;101263.84;;;23.27;29.84
56630;BME280;42502;40.732;-74.254;2023-04-26T01:54:20;101272.66;;;23.26;29.78
56630;BME280;42502;40.732;-74.254;2023-04-26T01:56:22;101261.38;;;23.26;29.79
56630;BME280;42502;40.732;-74.254;2023-04-26T01:58:23;101272.66;;;23.26;29.84
56630;BME280;42502;40.732;-74.254;2023-04-26T02:00:25;101267.38;;;23.24;29.79
56630;BME280;42502;40.732;-74.254;2023-04-26T02:02:27;101270.19;;;23.24;29.88
56630;BME280;42502;40.732;-74.254;2023-04-26T02:04:28;101273.00;;;23.24;29.80
56630;BME280;42502;40.732;-74.254;2023-04-26T02:06:29;101268.53;;;23.23;29.74
56630;BME280;42502;40.732;-74.254;2023-04-26T02:08:31;101270.56;;;23.22;29.78
56630;BME280;42502;40.732;-74.254;2023-04-26T02:10:32;101283.00;;;23.21;29.88
56630;BME280;42502;40.732;-74.254;2023-04-26T02:12:33;101265.28;;;23.21;29.86
56630;BME280;42502;40.732;-74.254;2023-04-26T02:14:34;101278.56;;;23.20;29.84
56630;BME280;42502;40.732;-74.254;2023-04-26T02:16:35;101281.38;;;23.20;29.71
56630;BME280;42502;40.732;-74.254;2023-04-26T02:18:36;101270.09;;;23.20;29.96
56630;BME280;42502;40.732;-74.254;2023-04-26T02:20:39;101261.88;;;23.15;29.81
56630;BME280;42502;40.732;-74.254;2023-04-26T02:22:42;101272.44;;;23.18;29.86
56630;BME280;42502;40.732;-74.254;2023-04-26T02:24:43;101278.06;;;23.18;29.73
56630;BME280;42502;40.732;-74.254;2023-04-26T02:26:44;101271.63;;;23.18;29.81
56630;BME280;42502;40.732;-74.254;2023-04-26T02:28:45;101282.09;;;23.17;30.01
56630;BME280;42502;40.732;-74.254;2023-04-26T02:30:45;101286.91;;;23.17;29.83
56630;BME280;42502;40.732;-74.254;2023-04-26T02:32:46;101280.81;;;23.15;29.65
56630;BME280;42502;40.732;-74.254;2023-04-26T02:34:47;101290.06;;;23.15;29.82
56630;BME280;42502;40.732;-74.254;2023-04-26T02:36:48;101288.44;;;23.14;29.89
56630;BME280;42502;40.732;-74.254;2023-04-26T02:38:49;101288.44;;;23.14;29.77
56630;BME280;42502;40.732;-74.254;2023-04-26T02:40:58;101280.56;;;23.07;30.22
56630;BME280;42502;40.732;-74.254;2023-04-26T02:42:59;101280.34;;;23.13;29.61
56630;BME280;42502;40.732;-74.254;2023-04-26T02:45:00;101283.16;;;23.13;29.85
56630;BME280;42502;40.732;-74.254;2023-04-26T02:47:00;101286.00;;;23.13;29.81
56630;BME280;42502;40.732;-74.254;2023-04-26T02:49:01;101286.69;;;23.10;29.92
56630;BME280;42502;40.732;-74.254;2023-04-26T02:51:02;101285.84;;;23.09;29.85
56630;BME280;42502;40.732;-74.254;2023-04-26T02:53:03;101283.03;;;23.09;29.75
56630;BME280;42502;40.732;-74.254;2023-04-26T02:55:05;101298.31;;;23.08;29.77
56630;BME280;42502;40.732;-74.254;2023-04-26T02:57:06;101289.00;;;23.07;29.77
56630;BME280;42502;40.732;-74.254;2023-04-26T02:59:07;101291.81;;;23.07;29.73
56630;BME280;42502;40.732;-74.254;2023-04-26T03:01:08;101288.91;;;23.04;29.73
56630;BME280;42502;40.732;-74.254;2023-04-26T03:03:09;101297.00;;;23.05;29.77
56630;BME280;42502;40.732;-74.254;2023-04-26T03:05:10;101290.06;;;23.03;29.71
56630;BME280;42502;40.732;-74.254;2023-04-26T03:07:12;101285.16;;;23.00;29.80
56630;BME280;42502;40.732;-74.254;2023-04-26T03:09:16;101294.53;;;23.04;29.70
56630;BME280;42502;40.732;-74.254;2023-04-26T03:11:17;101292.09;;;23.02;29.68
56630;BME280;42502;40.732;-74.254;2023-04-26T03:13:18;101296.91;;;23.02;29.75
56630;BME280;42502;40.732;-74.254;2023-04-26T03:15:19;101301.72;;;23.01;29.82
56630;BME280;42502;40.732;-74.254;2023-04-26T03:17:19;101298.09;;;23.01;29.97
56630;BME280;42502;40.732;-74.254;2023-04-26T03:19:21;101296.78;;;22.98;29.95
56630;BME280;42502;40.732;-74.254;2023-04-26T03:21:21;101299.25;;;23.00;29.81
56630;BME280;42502;40.732;-74.254;2023-04-26T03:23:27;101304.06;;;22.99;29.73
56630;BME280;42502;40.732;-74.254;2023-04-26T03:25:28;101308.91;;;22.99;29.96
56630;BME280;42502;40.732;-74.254;2023-04-26T03:27:29;101300.44;;;22.99;29.63
56630;BME280;42502;40.732;-74.254;2023-04-26T03:29:30;101300.31;;;22.95;29.78
56630;BME280;42502;40.732;-74.254;2023-04-26T03:31:31;101310.41;;;22.96;29.77
56630;BME280;42502;40.732;-74.254;2023-04-26T03:33:32;101312.44;;;22.96;29.85
56630;BME280;42502;40.732;-74.254;2023-04-26T03:35:33;101305.13;;;22.95;29.70
56630;BME280;42502;40.732;-74.254;2023-04-26T03:37:36;101312.78;;;22.94;29.75
56630;BME280;42502;40.732;-74.254;2023-04-26T03:39:41;101311.13;;;22.93;29.92
56630;BME280;42502;40.732;-74.254;2023-04-26T03:41:42;101310.28;;;22.93;29.61
56630;BME280;42502;40.732;-74.254;2023-04-26T03:43:43;101313.09;;;22.93;29.70
56630;BME280;42502;40.732;-74.254;2023-04-26T03:45:46;101309.84;;;22.91;29.68
56630;BME280;42502;40.732;-74.254;2023-04-26T03:47:48;101307.03;;;22.91;29.73
56630;BME280;42502;40.732;-74.254;2023-04-26T03:49:49;101321.47;;;22.89;29.77
56630;BME280;42502;40.732;-74.254;2023-04-26T03:51:50;101317.47;;;22.90;29.89
56630;BME280;42502;40.732;-74.254;2023-04-26T03:53:54;101315.72;;;22.85;29.49
56630;BME280;42502;40.732;-74.254;2023-04-26T03:55:55;101316.19;;;22.87;29.69
56630;BME280;42502;40.732;-74.254;2023-04-26T03:57:56;101314.53;;;22.86;29.62
56630;BME280;42502;40.732;-74.254;2023-04-26T03:59:57;101320.53;;;22.85;29.78
56630;BME280;42502;40.732;-74.254;2023-04-26T04:01:58;101320.53;;;22.85;29.89
56630;BME280;42502;40.732;-74.254;2023-04-26T04:03:58;101322.88;;;22.83;29.68
56630;BME280;42502;40.732;-74.254;2023-04-26T04:05:59;101318.91;;;22.84;29.68
56630;BME280;42502;40.732;-74.254;2023-04-26T04:08:00;101322.41;;;22.81;29.73
56630;BME280;42502;40.732;-74.254;2023-04-26T04:10:01;101323.59;;;22.80;29.82
56630;BME280;42502;40.732;-74.254;2023-04-26T04:12:02;101326.06;;;22.81;29.89
56630;BME280;42502;40.732;-74.254;2023-04-26T04:14:03;101326.75;;;22.78;29.74
56630;BME280;42502;40.732;-74.254;2023-04-26T04:16:04;101331.22;;;22.79;29.80
56630;BME280;42502;40.732;-74.254;2023-04-26T04:18:06;101338.84;;;22.79;29.65
56630;BME280;42502;40.732;-74.254;2023-04-26T04:20:07;101327.00;;;22.73;29.72
56630;BME280;42502;40.732;-74.254;2023-04-26T04:22:08;101340.38;;;22.76;29.75
56630;BME280;42502;40.732;-74.254;2023-04-26T04:24:09;101338.72;;;22.75;29.71
56630;BME280;42502;40.732;-74.254;2023-04-26T04:26:10;101335.91;;;22.75;29.77
56630;BME280;42502;40.732;-74.254;2023-04-26T04:28:15;101337.09;;;22.74;29.67
56630;BME280;42502;40.732;-74.254;2023-04-26T04:30:15;101340.25;;;22.73;29.68
56630;BME280;42502;40.732;-74.254;2023-04-26T04:32:16;101345.88;;;22.73;29.70
56630;BME280;42502;40.732;-74.254;2023-04-26T04:34:18;101338.63;;;22.71;29.71
56630;BME280;42502;40.732;-74.254;2023-04-26T04:36:19;101346.25;;;22.71;29.65
56630;BME280;42502;40.732;-74.254;2023-04-26T04:38:20;101345.78;;;22.69;29.66
56630;BME280;42502;40.732;-74.254;2023-04-26T04:40:21;101340.97;;;22.69;29.81
56630;BME280;42502;40.732;-74.254;2023-04-26T04:42:22;101335.69;;;22.68;29.61
56630;BME280;42502;40.732;-74.254;2023-04-26T04:44:23;101335.69;;;22.68;29.50
56630;BME280;42502;40.732;-74.254;2023-04-26T04:46:26;101336.03;;;22.66;29.67
56630;BME280;42502;40.732;-74.254;2023-04-26T04:48:27;101336.03;;;22.66;29.63
56630;BME280;42502;40.732;-74.254;2023-04-26T04:50:28;101342.88;;;22.65;29.72
56630;BME280;42502;40.732;-74.254;2023-04-26T04:52:28;101339.22;;;22.65;29.65
56630;BME280;42502;40.732;-74.254;2023-04-26T04:54:32;101336.75;;;22.63;29.60
56630;BME280;42502;40.732;-74.254;2023-04-26T04:56:33;101335.94;;;22.63;29.79
56630;BME280;42502;40.732;-74.254;2023-04-26T04:58:34;101331.72;;;22.57;29.44
56630;BME280;42502;40.732;-74.254;2023-04-26T05:00:35;101339.09;;;22.61;29.69
56630;BME280;42502;40.732;-74.254;2023-04-26T05:02:37;101343.06;;;22.60;29.77
56630;BME280;42502;40.732;-74.254;2023-04-26T05:04:38;101334.97;;;22.59;29.67
56630;BME280;42502;40.732;-74.254;2023-04-26T05:06:39;101337.00;;;22.58;29.58
56630;BME280;42502;40.732;-74.254;2023-04-26T05:08:40;101342.63;;;22.58;29.62
56630;BME280;42502;40.732;-74.254;2023-04-26T05:10:41;101343.78;;;22.57;29.72
56630;BME280;42502;40.732;-74.254;2023-04-26T05:12:42;101341.31;;;22.56;29.23
56630;BME280;42502;40.732;-74.254;2023-04-26T05:14:43;101331.22;;;22.54;29.49
56630;BME280;42502;40.732;-74.254;2023-04-26T05:16:46;101343.69;;;22.53;29.62
56630;BME280;42502;40.732;-74.254;2023-04-26T05:18:48;101336.41;;;22.52;29.57
56630;BME280;42502;40.732;-74.254;2023-04-26T05:20:48;101344.84;;;22.52;29.52
56630;BME280;42502;40.732;-74.254;2023-04-26T05:22:50;101344.38;;;22.50;29.47
56630;BME280;42502;40.732;-74.254;2023-04-26T05:24:51;101338.25;;;22.48;29.67
56630;BME280;42502;40.732;-74.254;2023-04-26T05:26:51;101339.09;;;22.49;29.57
56630;BME280;42502;40.732;-74.254;2023-04-26T05:28:52;101342.63;;;22.46;29.79
56630;BME280;42502;40.732;-74.254;2023-04-26T05:30:56;101340.63;;;22.46;29.75
56630;BME280;42502;40.732;-74.254;2023-04-26T05:32:57;101344.25;;;22.47;29.58
56630;BME280;42502;40.732;-74.254;2023-04-26T05:34:58;101329.72;;;22.45;29.59
56630;BME280;42502;40.732;-74.254;2023-04-26T05:36:59;101334.75;;;22.39;29.43
56630;BME280;42502;40.732;-74.254;2023-04-26T05:39:02;101336.50;;;22.44;29.55
56630;BME280;42502;40.732;-74.254;2023-04-26T05:41:05;101329.59;;;22.41;29.54
56630;BME280;42502;40.732;-74.254;2023-04-26T05:43:06;101323.97;;;22.41;29.67
56630;BME280;42502;40.732;-74.254;2023-04-26T05:45:07;101327.94;;;22.40;29.49
56630;BME280;42502;40.732;-74.254;2023-04-26T05:47:12;101317.28;;;22.33;29.43
56630;BME280;42502;40.732;-74.254;2023-04-26T05:49:13;101323.47;;;22.39;29.57
56630;BME280;42502;40.732;-74.254;2023-04-26T05:51:17;101208.50;;;21.67;29.61
56630;BME280;42502;40.732;-74.254;2023-04-26T05:53:18;101322.22;;;22.37;29.43
56630;BME280;42502;40.732;-74.254;2023-04-26T05:55:19;101323.38;;;22.35;29.55
56630;BME280;42502;40.732;-74.254;2023-04-26T05:57:20;101311.50;;;22.30;29.51
56630;BME280;42502;40.732;-74.254;2023-04-26T05:59:21;101327.69;;;22.33;29.42
56630;BME280;42502;40.732;-74.254;2023-04-26T06:01:22;101322.06;;;22.33;29.68
56630;BME280;42502;40.732;-74.254;2023-04-26T06:03:23;101328.06;;;22.31;29.46
56630;BME280;42502;40.732;-74.254;2023-04-26T06:05:24;101330.06;;;22.31;29.59
56630;BME280;42502;40.732;-74.254;2023-04-26T06:07:25;101330.06;;;22.31;29.43
56630;BME280;42502;40.732;-74.254;2023-04-26T06:09:26;101323.09;;;22.28;29.46
56630;BME280;42502;40.732;-74.254;2023-04-26T06:11:27;101332.34;;;22.29;29.48
56630;BME280;42502;40.732;-74.254;2023-04-26T06:13:27;101330.72;;;22.28;29.73
56630;BME280;42502;40.732;-74.254;2023-04-26T06:15:28;101323.44;;;22.27;29.51
56630;BME280;42502;40.732;-74.254;2023-04-26T06:17:31;101322.50;;;22.23;29.40
56630;BME280;42502;40.732;-74.254;2023-04-26T06:19:31;101324.16;;;22.24;29.34
56630;BME280;42502;40.732;-74.254;2023-04-26T06:21:32;101328.13;;;22.23;29.54
56630;BME280;42502;40.732;-74.254;2023-04-26T06:23:33;101322.50;;;22.23;29.50
56630;BME280;42502;40.732;-74.254;2023-04-26T06:25:34;101326.50;;;22.22;29.35
56630;BME280;42502;40.732;-74.254;2023-04-26T06:27:36;101327.66;;;22.21;29.44
56630;BME280;42502;40.732;-74.254;2023-04-26T06:29:38;101329.66;;;22.20;29.42
56630;BME280;42502;40.732;-74.254;2023-04-26T06:31:39;101332.84;;;22.18;29.46
56630;BME280;42502;40.732;-74.254;2023-04-26T06:33:40;101329.19;;;22.18;29.42
56630;BME280;42502;40.732;-74.254;2023-04-26T06:35:41;101321.44;;;22.15;29.44
56630;BME280;42502;40.732;-74.254;2023-04-26T06:37:42;101332.34;;;22.16;29.41
56630;BME280;42502;40.732;-74.254;2023-04-26T06:39:46;101324.94;;;22.12;29.40
56630;BME280;42502;40.732;-74.254;2023-04-26T06:41:46;101327.06;;;22.15;29.30
56630;BME280;42502;40.732;-74.254;2023-04-26T06:43:50;101312.41;;;22.09;29.58
56630;BME280;42502;40.732;-74.254;2023-04-26T06:45:51;101310.06;;;22.11;29.52
56630;BME280;42502;40.732;-74.254;2023-04-26T06:47:55;101317.69;;;22.11;29.41
56630;BME280;42502;40.732;-74.254;2023-04-26T06:49:56;101319.66;;;22.10;29.30
56630;BME280;42502;40.732;-74.254;2023-04-26T06:52:00;101305.03;;;22.05;29.35
56630;BME280;42502;40.732;-74.254;2023-04-26T06:54:01;101310.75;;;22.08;29.37
56630;BME280;42502;40.732;-74.254;2023-04-26T06:56:07;101315.94;;;22.06;29.39
56630;BME280;42502;40.732;-74.254;2023-04-26T06:58:08;101307.50;;;22.06;29.27
56630;BME280;42502;40.732;-74.254;2023-04-26T07:00:10;101308.19;;;22.03;29.31
56630;BME280;42502;40.732;-74.254;2023-04-26T07:02:15;101302.22;;;22.05;29.11
56630;BME280;42502;40.732;-74.254;2023-04-26T07:04:15;101313.81;;;22.03;29.29
56630;BME280;42502;40.732;-74.254;2023-04-26T07:06:18;101307.34;;;22.03;29.30
56630;BME280;42502;40.732;-74.254;2023-04-26T07:08:18;101305.72;;;22.02;29.29
56630;BME280;42502;40.732;-74.254;2023-04-26T07:10:28;101308.06;;;21.99;29.43
56630;BME280;42502;40.732;-74.254;2023-04-26T07:12:29;101308.84;;;22.00;29.21
56630;BME280;42502;40.732;-74.254;2023-04-26T07:14:30;101295.97;;;21.99;29.24
56630;BME280;42502;40.732;-74.254;2023-04-26T07:16:34;101295.03;;;21.95;29.34
56630;BME280;42502;40.732;-74.254;2023-04-26T07:18:34;101305.94;;;21.96;29.37
56630;BME280;42502;40.732;-74.254;2023-04-26T07:20:38;101303.47;;;21.95;29.23
56630;BME280;42502;40.732;-74.254;2023-04-26T07:22:39;101303.47;;;21.95;29.33
56630;BME280;42502;40.732;-74.254;2023-04-26T07:24:40;101311.09;;;21.94;29.22
56630;BME280;42502;40.732;-74.254;2023-04-26T07:26:41;101294.06;;;21.91;29.41
56630;BME280;42502;40.732;-74.254;2023-04-26T07:28:42;101310.97;;;21.91;29.44
56630;BME280;42502;40.732;-74.254;2023-04-26T07:30:43;101306.16;;;21.91;29.32
56630;BME280;42502;40.732;-74.254;2023-04-26T07:32:44;101307.34;;;21.90;29.22
56630;BME280;42502;40.732;-74.254;2023-04-26T07:34:45;101303.72;;;21.90;29.39
56630;BME280;42502;40.732;-74.254;2023-04-26T07:36:46;101310.50;;;21.89;29.22
56630;BME280;42502;40.732;-74.254;2023-04-26T07:38:47;101306.88;;;21.88;29.24
56630;BME280;42502;40.732;-74.254;2023-04-26T07:40:48;101306.03;;;21.88;29.23
56630;BME280;42502;40.732;-74.254;2023-04-26T07:42:58;101309.19;;;21.86;29.25
56630;BME280;42502;40.732;-74.254;2023-04-26T07:44:59;101305.09;;;21.83;29.28
56630;BME280;42502;40.732;-74.254;2023-04-26T07:47:00;101308.72;;;21.84;29.33
56630;BME280;42502;40.732;-74.254;2023-04-26T07:49:01;101282.09;;;21.69;29.37
56630;BME280;42502;40.732;-74.254;2023-04-26T07:51:14;101304.59;;;21.81;29.42
56630;BME280;42502;40.732;-74.254;2023-04-26T07:53:14;101307.41;;;21.81;29.22
56630;BME280;42502;40.732;-74.254;2023-04-26T07:55:15;101305.78;;;21.80;29.03
56630;BME280;42502;40.732;-74.254;2023-04-26T07:57:16;101309.78;;;21.79;29.16
56630;BME280;42502;40.732;-74.254;2023-04-26T07:59:17;101305.31;;;21.78;29.16
56630;BME280;42502;40.732;-74.254;2023-04-26T08:01:18;101309.66;;;21.76;29.20
56630;BME280;42502;40.732;-74.254;2023-04-26T08:03:19;101310.47;;;21.76;29.19
56630;BME280;42502;40.732;-74.254;2023-04-26T08:05:20;101308.81;;;21.75;29.13
56630;BME280;42502;40.732;-74.254;2023-04-26T08:07:21;101312.31;;;21.72;29.22
56630;BME280;42502;40.732;-74.254;2023-04-26T08:09:24;101313.16;;;21.73;29.29
56630;BME280;42502;40.732;-74.254;2023-04-26T08:11:25;101313.50;;;21.71;29.04
56630;BME280;42502;40.732;-74.254;2023-04-26T08:13:29;101309.03;;;21.70;29.08
56630;BME280;42502;40.732;-74.254;2023-04-26T08:15:30;101312.66;;;21.71;29.21
56630;BME280;42502;40.732;-74.254;2023-04-26T08:17:31;101308.22;;;21.70;29.09
56630;BME280;42502;40.732;-74.254;2023-04-26T08:19:32;101303.75;;;21.69;29.20
56630;BME280;42502;40.732;-74.254;2023-04-26T08:21:33;101309.75;;;21.67;29.28
56630;BME280;42502;40.732;-74.254;2023-04-26T08:23:35;101299.53;;;21.62;29.26
56630;BME280;42502;40.732;-74.254;2023-04-26T08:25:38;101309.25;;;21.65;29.16
56630;BME280;42502;40.732;-74.254;2023-04-26T08:27:42;101308.44;;;21.64;29.10
56630;BME280;42502;40.732;-74.254;2023-04-26T08:29:45;101317.22;;;21.63;29.06
56630;BME280;42502;40.732;-74.254;2023-04-26T08:31:46;101312.75;;;21.62;29.22
56630;BME280;42502;40.732;-74.254;2023-04-26T08:33:47;101321.19;;;21.62;29.18
56630;BME280;42502;40.732;-74.254;2023-04-26T08:35:48;101321.53;;;21.60;29.05
56630;BME280;42502;40.732;-74.254;2023-04-26T08:37:49;101326.34;;;21.60;29.21
56630;BME280;42502;40.732;-74.254;2023-04-26T08:39:50;101330.31;;;21.59;29.02
56630;BME280;42502;40.732;-74.254;2023-04-26T08:41:53;101322.56;;;21.56;29.16
56630;BME280;42502;40.732;-74.254;2023-04-26T08:43:57;101330.66;;;21.57;29.13
56630;BME280;42502;40.732;-74.254;2023-04-26T08:45:58;101335.47;;;21.57;29.04
56630;BME280;42502;40.732;-74.254;2023-04-26T08:48:05;101336.97;;;21.54;29.20
56630;BME280;42502;40.732;-74.254;2023-04-26T08:50:12;101307.22;;;21.32;29.16
56630;BME280;42502;40.732;-74.254;2023-04-26T08:52:14;101337.31;;;21.53;28.97
56630;BME280;42502;40.732;-74.254;2023-04-26T08:54:17;101327.91;;;21.48;29.12
56630;BME280;42502;40.732;-74.254;2023-04-26T08:56:22;101337.66;;;21.51;29.08
56630;BME280;42502;40.732;-74.254;2023-04-26T08:58:23;101335.19;;;21.50;29.20
56630;BME280;42502;40.732;-74.254;2023-04-26T09:00:25;101331.53;;;21.49;29.09
56630;BME280;42502;40.732;-74.254;2023-04-26T09:02:26;101333.53;;;21.48;28.93
56630;BME280;42502;40.732;-74.254;2023-04-26T09:04:27;101324.16;;;21.44;29.14
56630;BME280;42502;40.732;-74.254;2023-04-26T09:06:28;101334.22;;;21.45;29.00
56630;BME280;42502;40.732;-74.254;2023-04-26T09:08:31;101336.19;;;21.45;29.00
56630;BME280;42502;40.732;-74.254;2023-04-26T09:10:35;101338.19;;;21.44;29.18
56630;BME280;42502;40.732;-74.254;2023-04-26T09:12:39;101342.16;;;21.43;29.12
56630;BME280;42502;40.732;-74.254;2023-04-26T09:14:40;101358.22;;;21.43;28.95
56630;BME280;42502;40.732;-74.254;2023-04-26T09:16:41;101356.91;;;21.40;28.99
56630;BME280;42502;40.732;-74.254;2023-04-26T09:18:51;101372.16;;;21.39;29.10
56630;BME280;42502;40.732;-74.254;2023-04-26T09:21:06;101368.84;;;21.37;29.26
56630;BME280;42502;40.732;-74.254;2023-04-26T09:23:08;101379.75;;;21.39;28.90
56630;BME280;42502;40.732;-74.254;2023-04-26T09:25:10;101376.13;;;21.38;28.99
56630;BME280;42502;40.732;-74.254;2023-04-26T09:27:13;101381.22;;;21.36;29.07
56630;BME280;42502;40.732;-74.254;2023-04-26T09:29:18;101385.22;;;21.35;29.07
56630;BME280;42502;40.732;-74.254;2023-04-26T09:31:41;101376.66;;;21.32;29.38
56630;BME280;42502;40.732;-74.254;2023-04-26T09:34:03;101381.44;;;21.31;29.33
56630;BME280;42502;40.732;-74.254;2023-04-26T09:36:21;101382.59;;;21.30;29.44
56630;BME280;42502;40.732;-74.254;2023-04-26T09:38:28;101383.91;;;21.33;28.97
56630;BME280;42502;40.732;-74.254;2023-04-26T09:40:31;101378.63;;;21.31;29.14
56630;BME280;42502;40.732;-74.254;2023-04-26T09:42:34;101382.59;;;21.30;29.13
56630;BME280;42502;40.732;-74.254;2023-04-26T09:44:35;101391.03;;;21.30;28.91
56630;BME280;42502;40.732;-74.254;2023-04-26T09:46:36;101381.16;;;21.24;29.23
56630;BME280;42502;40.732;-74.254;2023-04-26T09:48:37;101391.72;;;21.27;29.13
56630;BME280;42502;40.732;-74.254;2023-04-26T09:50:38;101388.91;;;21.27;29.00
56630;BME280;42502;40.732;-74.254;2023-04-26T09:52:42;101389.59;;;21.24;29.10
56630;BME280;42502;40.732;-74.254;2023-04-26T09:54:51;101385.97;;;21.23;29.18
56630;BME280;42502;40.732;-74.254;2023-04-26T09:56:59;101383.50;;;21.22;29.18
56630;BME280;42502;40.732;-74.254;2023-04-26T09:59:01;101376.72;;;21.23;28.99
56630;BME280;42502;40.732;-74.254;2023-04-26T10:01:09;101379.88;;;21.21;28.96
56630;BME280;42502;40.732;-74.254;2023-04-26T10:03:11;101375.63;;;21.15;28.91
56630;BME280;42502;40.732;-74.254;2023-04-26T10:05:13;101388.66;;;21.20;28.97
56630;BME280;42502;40.732;-74.254;2023-04-26T10:07:16;101392.63;;;21.19;28.93
56630;BME280;42502;40.732;-74.254;2023-04-26T10:09:17;101392.97;;;21.17;28.98
56630;BME280;42502;40.732;-74.254;2023-04-26T10:11:20;101401.38;;;21.17;29.06
56630;BME280;42502;40.732;-74.254;2023-04-26T10:13:21;101402.53;;;21.16;29.11
56630;BME280;42502;40.732;-74.254;2023-04-26T10:15:22;101398.09;;;21.15;29.05
56630;BME280;42502;40.732;-74.254;2023-04-26T10:17:23;101400.06;;;21.15;28.92
56630;BME280;42502;40.732;-74.254;2023-04-26T10:19:24;101400.41;;;21.13;29.07
56630;BME280;42502;40.732;-74.254;2023-04-26T10:21:28;101399.59;;;21.12;29.07